Time;durP1;ratioP1;P1;durP2;ratioP2;P2;SDS_P1;SDS_P2;PMS_P1;PMS_P2;Temp;Humidity;BMP_temperature;BMP_pressure;BME280_temperature;BME280_humidity;BME280_pressure;Samples;Min_cycle;Max_cycle;Signal;HPM_P1;HPM_P2
2022/05/20 00:00:54;;;;;;;3.58;2.05;;;;;;;12.57;77.39;101204.13;5589152;31;33945;-65
2022/05/20 00:03:58;;;;;;;6.93;2.42;;;;;;;12.51;79.80;101212.75;5574946;31;33206;-65
2022/05/20 00:07:00;;;;;;;7.15;2.53;;;;;;;12.62;82.82;101205.31;5588532;31;34068;-64
2022/05/20 00:10:04;;;;;;;4.35;2.10;;;;;;;12.54;84.21;101215.06;5588816;31;34089;-65
2022/05/20 00:13:07;;;;;;;6.12;2.30;;;;;;;12.46;84.23;101212.38;5589163;31;33935;-65
2022/05/20 00:16:10;;;;;;;3.95;2.22;;;;;;;12.60;82.94;101207.28;5588359;31;34611;-65
2022/05/20 00:19:13;;;;;;;3.80;2.30;;;;;;;12.68;81.96;101219.81;5588896;31;34583;-65
2022/05/20 00:22:16;;;;;;;5.05;2.20;;;;;;;12.57;82.84;101204.97;5588652;31;34090;-65
2022/05/20 00:28:46;;;;;;;3.72;2.50;;;;;;;12.52;83.14;101206.44;5588303;31;34261;-65
2022/05/20 00:31:49;;;;;;;5.15;2.40;;;;;;;12.51;82.26;101210.06;5588536;31;34039;-65
2022/05/20 00:34:52;;;;;;;5.43;2.30;;;;;;;12.33;81.20;101209.34;5588793;31;34690;-65
2022/05/20 00:37:57;;;;;;;4.50;2.50;;;;;;;12.36;76.57;101207.19;5588482;31;34067;-65
2022/05/20 00:41:01;;;;;;;5.78;2.33;;;;;;;12.33;76.53;101206.69;5587640;31;33920;-65
2022/05/20 00:44:03;;;;;;;6.93;2.28;;;;;;;12.26;76.76;101197.66;5589814;31;33925;-65
2022/05/20 00:47:07;;;;;;;5.72;2.35;;;;;;;12.16;75.90;101195.94;5591005;31;34225;-65
2022/05/20 00:50:16;;;;;;;7.25;2.72;;;;;;;12.19;74.30;101208.94;5590261;31;32411;-65
2022/05/20 00:53:23;;;;;;;4.12;2.30;;;;;;;12.14;74.93;101213.91;5590288;31;33947;-65
2022/05/20 00:56:34;;;;;;;6.22;2.20;;;;;;;11.96;75.67;101213.09;5577300;31;32651;-65
2022/05/20 00:59:41;;;;;;;5.28;1.90;;;;;;;11.85;78.60;101210.72;5589783;31;32517;-65
2022/05/20 01:02:46;;;;;;;4.30;2.25;;;;;;;11.82;80.47;101215.50;5577081;31;33025;-65
2022/05/20 01:05:51;;;;;;;3.28;2.20;;;;;;;11.75;82.24;101212.63;5590186;31;32426;-65
2022/05/20 01:08:53;;;;;;;5.43;2.20;;;;;;;11.66;83.99;101222.34;5590724;31;34028;-65
2022/05/20 01:11:57;;;;;;;2.87;1.90;;;;;;;11.60;84.28;101207.00;5590695;31;33679;-65
2022/05/20 01:14:59;;;;;;;3.20;2.30;;;;;;;11.49;85.52;101215.22;5590692;31;34043;-64
2022/05/20 01:18:03;;;;;;;4.70;2.35;;;;;;;11.40;86.07;101205.50;5590733;31;35236;-65
2022/05/20 01:21:06;;;;;;;6.72;2.92;;;;;;;11.39;87.37;101208.31;5590038;31;32614;-65
2022/05/20 01:24:09;;;;;;;4.25;2.08;;;;;;;11.29;87.46;101206.56;5591048;31;33969;-65
2022/05/20 01:27:11;;;;;;;3.70;2.05;;;;;;;11.19;87.77;101207.63;5589734;31;34100;-65
2022/05/20 01:30:18;;;;;;;3.97;2.20;;;;;;;11.13;88.47;101202.94;5590549;31;34895;-65
2022/05/20 01:33:31;;;;;;;4.05;2.47;;;;;;;11.07;88.97;101195.56;5590426;31;34759;-65
2022/05/20 01:36:34;;;;;;;6.55;2.50;;;;;;;11.00;89.24;101195.34;5590443;31;34000;-65
2022/05/20 01:39:37;;;;;;;2.80;2.00;;;;;;;10.96;89.72;101201.94;5589356;31;32908;-65
2022/05/20 01:43:35;;;;;;;6.43;2.33;;;;;;;10.90;90.80;101203.37;5590438;31;33949;-65
2022/05/20 01:46:46;;;;;;;3.90;2.30;;;;;;;10.85;91.30;101197.66;5565985;31;33956;-65
2022/05/20 01:49:58;;;;;;;5.43;2.35;;;;;;;10.94;91.33;101189.81;5590282;31;34016;-65
2022/05/20 01:53:09;;;;;;;5.05;2.42;;;;;;;10.86;91.14;101195.84;5590371;31;34327;-65
2022/05/20 01:56:19;;;;;;;3.70;2.30;;;;;;;10.89;92.50;101183.09;5589329;31;34612;-65
2022/05/20 01:59:37;;;;;;;3.93;2.20;;;;;;;10.98;91.10;101172.59;5590330;31;34363;-65
2022/05/20 02:03:16;;;;;;;4.28;2.25;;;;;;;10.97;91.46;101169.09;5589436;31;34605;-65
2022/05/20 02:06:27;;;;;;;4.20;2.20;;;;;;;10.95;91.48;101165.75;5585618;31;33362;-65
2022/05/20 02:09:50;;;;;;;;;;;;;;;10.85;91.36;101165.81;5589607;31;32349;-65
2022/05/20 02:12:58;;;;;;;5.57;2.90;;;;;;;10.80;91.64;101159.28;5590421;31;34918;-65
2022/05/20 02:16:09;;;;;;;7.32;3.03;;;;;;;10.73;89.66;101163.53;5590459;31;34117;-65
2022/05/20 02:19:21;;;;;;;10.18;3.20;;;;;;;10.66;86.55;101163.28;5590096;31;33925;-65
2022/05/20 02:22:27;;;;;;;5.32;2.70;;;;;;;10.68;85.60;101155.19;5590138;31;33947;-65
2022/05/20 02:25:34;;;;;;;4.70;2.53;;;;;;;10.64;83.80;101162.63;5590173;31;34680;-65
2022/05/20 02:28:42;;;;;;;4.20;2.70;;;;;;;10.61;81.22;101168.22;5589073;31;33059;-66
2022/05/20 02:31:53;;;;;;;8.32;2.67;;;;;;;10.58;80.32;101173.81;5589277;31;34426;-65
2022/05/20 02:34:56;;;;;;;4.97;2.80;;;;;;;10.59;79.65;101170.19;5589883;31;34202;-65
2022/05/20 02:38:08;;;;;;;4.70;2.70;;;;;;;10.64;78.06;101162.63;5589144;31;34655;-65
2022/05/20 02:41:11;;;;;;;3.70;2.40;;;;;;;10.73;77.27;101163.53;5589917;31;33897;-65
2022/05/20 02:44:15;;;;;;;5.75;2.80;;;;;;;10.83;76.27;101162.50;5589887;31;34187;-65
2022/05/20 02:47:17;;;;;;;5.55;3.12;;;;;;;10.82;nan;101158.16;5589920;31;34053;-65
2022/05/20 02:50:20;;;;;;;4.65;2.67;;;;;;;10.81;77.52;101167.09;5588981;31;33655;-65
2022/05/20 02:53:23;;;;;;;6.25;3.00;;;;;;;10.80;76.64;101154.81;5589969;31;33948;-65
2022/05/20 02:56:26;;;;;;;6.68;3.20;;;;;;;10.81;77.36;101155.66;5589190;31;32770;-65
2022/05/20 03:06:12;;;;;;;6.20;3.08;;;;;;;10.80;77.68;101146.00;5589032;31;34359;-65
2022/05/20 03:09:19;;;;;;;5.50;2.97;;;;;;;10.90;78.11;101142.31;5588904;31;32825;-65
2022/05/20 03:12:21;;;;;;;8.52;3.37;;;;;;;10.90;76.31;101147.62;5589670;31;33982;-66
2022/05/20 03:15:24;;;;;;;5.25;3.08;;;;;;;10.89;75.38;101150.44;5589734;31;33966;-65
2022/05/20 03:18:27;;;;;;;5.62;3.28;;;;;;;10.93;75.03;101151.81;5589536;31;33971;-65
2022/05/20 03:21:31;;;;;;;7.65;3.00;;;;;;;11.05;74.03;101150.56;5588533;31;33477;-65
2022/05/20 03:24:33;;;;;;;8.10;3.03;;;;;;;11.01;75.66;101154.53;5589719;31;34618;-64
2022/05/20 03:27:37;;;;;;;5.45;2.92;;;;;;;11.00;75.76;101149.34;5588819;31;35134;-65
2022/05/20 03:30:40;;;;;;;7.40;3.20;;;;;;;10.94;75.34;101158.75;5589221;31;35238;-65
2022/05/20 03:33:43;;;;;;;6.22;3.00;;;;;;;10.92;76.59;101152.78;5589448;31;34101;-65
2022/05/20 03:36:48;;;;;;;11.07;3.33;;;;;;;10.89;76.47;101158.41;5589390;31;35422;-65
2022/05/20 03:39:52;;;;;;;5.57;3.10;;;;;;;10.92;76.57;101154.59;5589312;31;34347;-65
2022/05/20 03:42:54;;;;;;;4.82;2.75;;;;;;;10.94;77.49;101148.13;5589408;31;34680;-65
2022/05/20 03:45:57;;;;;;;6.40;3.33;;;;;;;10.98;78.86;101151.34;5589295;31;34658;-65
2022/05/20 03:49:00;;;;;;;8.10;3.22;;;;;;;11.00;78.50;101152.84;5588612;31;33350;-65
2022/05/20 03:52:03;;;;;;;8.00;3.40;;;;;;;11.06;77.57;101154.91;5589049;31;34620;-65
2022/05/20 03:55:07;;;;;;;4.05;2.78;;;;;;;11.11;77.03;101154.44;5589300;31;34599;-66
2022/05/20 03:58:10;;;;;;;6.32;3.10;;;;;;;11.19;77.89;101151.84;5589290;31;34700;-66
2022/05/20 04:04:41;;;;;;;7.95;3.42;;;;;;;11.41;76.16;101146.09;5589002;31;34630;-66
2022/05/20 04:07:44;;;;;;;5.07;3.42;;;;;;;11.55;77.31;101144.69;5588256;31;33287;-66
2022/05/20 04:10:47;;;;;;;5.12;3.33;;;;;;;11.82;76.44;101136.56;5587963;31;32457;-66
2022/05/20 04:13:49;;;;;;;5.22;3.00;;;;;;;11.96;74.78;101146.63;5588897;31;34076;-66
2022/05/20 04:16:57;;;;;;;8.07;3.50;;;;;;;12.03;76.18;101158.31;5588258;31;34598;-66
2022/05/20 04:19:59;;;;;;;6.85;3.20;;;;;;;12.17;73.32;101152.41;5590231;31;34004;-66
2022/05/20 04:23:02;;;;;;;6.87;3.30;;;;;;;12.45;71.75;101147.69;5591067;31;34792;-66
2022/05/20 04:26:04;;;;;;;11.63;4.15;;;;;;;12.76;70.37;101139.97;5591203;31;34094;-66
2022/05/20 04:29:07;;;;;;;8.68;3.55;;;;;;;12.86;68.53;101134.47;5590930;31;34099;-66
2022/05/20 04:32:10;;;;;;;8.07;3.53;;;;;;;13.20;68.03;101145.87;5591300;31;33915;-66
2022/05/20 04:35:13;;;;;;;6.30;3.30;;;;;;;13.23;69.91;101148.19;5590284;31;32474;-66
2022/05/20 04:38:16;;;;;;;5.72;3.05;;;;;;;13.34;68.37;101153.19;5590006;31;32770;-66
2022/05/20 04:48:02;;;;;;;7.50;3.60;;;;;;;13.77;63.79;101164.47;5590912;31;33865;-66
2022/05/20 04:51:05;;;;;;;6.00;3.22;;;;;;;13.77;64.90;101165.31;5589678;31;33207;-66
2022/05/20 04:57:35;;;;;;;8.48;3.00;;;;;;;14.11;62.93;101148.22;5590713;31;34600;-67
2022/05/20 05:00:38;;;;;;;5.62;3.00;;;;;;;14.28;63.35;101133.84;5590614;31;34070;-66
2022/05/20 05:03:41;;;;;;;6.43;3.10;;;;;;;14.47;63.62;101148.63;5590503;31;33951;-66
2022/05/20 05:06:44;;;;;;;7.40;3.10;;;;;;;14.46;61.84;101150.47;5589981;31;33274;-66
2022/05/20 05:09:47;;;;;;;6.07;3.00;;;;;;;14.60;60.51;101151.56;5589631;31;34216;-66
2022/05/20 05:12:50;;;;;;;6.12;3.37;;;;;;;14.63;59.66;101154.69;5589281;31;32879;-66
2022/05/20 05:15:52;;;;;;;5.32;3.25;;;;;;;14.67;58.46;101158.69;5589648;31;33316;-66
2022/05/20 05:18:55;;;;;;;7.05;3.65;;;;;;;14.81;58.06;101164.28;5590111;31;34570;-67
2022/05/20 05:21:58;;;;;;;6.28;3.53;;;;;;;14.93;57.75;101177.06;5589685;31;33185;-66
2022/05/20 05:25:01;;;;;;;7.85;3.45;;;;;;;15.16;55.98;101166.38;5590025;31;34328;-66
2022/05/20 05:28:04;;;;;;;6.97;3.05;;;;;;;15.35;57.47;101170.41;5589964;31;34680;-66
2022/05/20 05:31:07;;;;;;;10.43;3.47;;;;;;;15.39;57.21;101164.53;5589508;31;34253;-66
2022/05/20 05:34:10;;;;;;;9.02;3.60;;;;;;;15.31;57.64;101155.75;5590124;31;33994;-66
2022/05/20 05:37:12;;;;;;;14.10;3.72;;;;;;;15.29;56.30;101149.75;5589284;31;32619;-66
2022/05/20 05:40:22;;;;;;;8.65;3.20;;;;;;;15.63;58.26;101147.47;5588755;31;33318;-67
2022/05/20 05:43:26;;;;;;;8.85;4.03;;;;;;;15.77;54.06;101138.66;5588947;31;34360;-66
2022/05/20 05:46:30;;;;;;;7.60;3.70;;;;;;;15.86;55.59;101145.56;5588858;31;35040;-66
2022/05/20 05:49:33;;;;;;;7.47;3.87;;;;;;;16.17;55.59;101140.00;5575680;31;34049;-67
2022/05/20 05:52:35;;;;;;;10.93;4.05;;;;;;;16.34;54.09;101146.00;5590161;31;34332;-66
2022/05/20 05:55:41;;;;;;;6.85;3.78;;;;;;;16.42;53.46;101135.19;5589290;31;33170;-66
2022/05/20 05:58:43;;;;;;;12.90;3.83;;;;;;;16.42;55.28;101132.50;5589084;31;33555;-66
2022/05/20 06:01:46;;;;;;;7.80;3.65;;;;;;;16.47;53.05;101133.62;5589248;31;33882;-66
2022/05/20 06:04:51;;;;;;;10.38;3.40;;;;;;;16.49;52.62;101142.31;5589890;31;33882;-67
2022/05/20 06:07:55;;;;;;;8.10;3.08;;;;;;;16.59;54.28;101143.88;5589298;31;32333;-66
2022/05/20 06:10:57;;;;;;;7.70;3.12;;;;;;;16.66;53.79;101142.09;5588663;31;32755;-67
2022/05/20 06:14:00;;;;;;;7.55;2.95;;;;;;;16.77;50.96;101142.44;5589865;31;34206;-67
2022/05/20 06:17:04;;;;;;;9.35;3.22;;;;;;;17.14;51.66;101144.03;5589092;31;33987;-67
2022/05/20 06:20:07;;;;;;;7.72;2.85;;;;;;;17.59;50.49;101145.50;5589308;31;33280;-67
2022/05/20 06:23:10;;;;;;;7.60;2.58;;;;;;;17.74;47.74;101138.19;5588707;31;32444;-66
2022/05/20 06:26:13;;;;;;;8.50;2.80;;;;;;;18.07;48.24;101141.06;5588810;31;32883;-67
2022/05/20 06:29:19;;;;;;;8.73;3.47;;;;;;;18.17;47.65;101133.50;5589292;31;34107;-66
2022/05/20 06:32:21;;;;;;;9.70;3.42;;;;;;;18.70;45.92;101138.28;5589624;31;34589;-68
2022/05/20 06:42:07;;;;;;;8.32;3.05;;;;;;;19.39;44.03;101117.28;5588035;31;33516;-67
2022/05/20 06:45:12;;;;;;;5.35;2.65;;;;;;;19.41;44.80;101121.41;5588448;31;33170;-68
2022/05/20 06:48:15;;;;;;;6.28;2.55;;;;;;;19.55;43.22;101116.06;5588771;31;32554;-67
2022/05/20 06:51:21;;;;;;;4.37;2.42;;;;;;;19.69;42.60;101113.16;5589352;31;35206;-66
2022/05/20 06:54:24;;;;;;;7.70;2.47;;;;;;;19.53;41.86;101116.25;5588719;31;35639;-67
2022/05/20 06:57:27;;;;;;;24.23;2.75;;;;;;;19.50;41.37;101112.13;5589182;31;34676;-67
2022/05/20 07:00:30;;;;;;;14.50;2.78;;;;;;;19.50;40.50;101130.97;5588805;31;36246;-67
2022/05/20 07:03:33;;;;;;;11.25;2.62;;;;;;;19.50;40.47;101127.47;5589384;31;34006;-66
2022/05/20 07:06:36;;;;;;;9.35;2.20;;;;;;;19.43;40.98;101122.03;5588676;31;32307;-67
2022/05/20 07:09:39;;;;;;;11.15;2.45;;;;;;;19.27;40.42;101118.91;5589909;31;34423;-67
2022/05/20 07:12:42;;;;;;;10.93;1.95;;;;;;;19.16;42.43;101124.94;5588590;31;32071;-67
2022/05/20 07:15:44;;;;;;;6.28;2.00;;;;;;;19.14;42.58;101127.81;5589241;31;33991;-67
2022/05/20 07:18:47;;;;;;;3.45;1.90;;;;;;;19.19;39.89;101135.28;5589708;31;33968;-66
2022/05/20 07:21:50;;;;;;;10.95;3.03;;;;;;;19.23;39.95;101134.66;5589347;31;34672;-68
2022/05/20 07:24:55;;;;;;;4.57;2.20;;;;;;;19.39;40.38;101136.13;5589159;31;34003;-67
2022/05/20 07:27:59;;;;;;;6.57;2.25;;;;;;;20.18;39.52;101134.16;5588513;31;32789;-67
2022/05/20 07:31:03;;;;;;;5.43;1.90;;;;;;;21.80;36.28;101138.97;5588190;31;33442;-67
2022/05/20 07:34:07;;;;;;;5.45;2.22;;;;;;;22.81;33.65;101141.97;5588614;31;32409;-67
2022/05/20 07:37:09;;;;;;;7.62;2.25;;;;;;;23.26;33.01;101140.47;5588310;31;32871;-68
2022/05/20 07:40:12;;;;;;;7.97;2.03;;;;;;;22.90;34.12;101143.28;5588018;31;33036;-68
2022/05/20 07:43:15;;;;;;;8.10;2.35;;;;;;;23.38;34.55;101140.50;5588194;31;32937;-68
2022/05/20 07:46:18;;;;;;;5.47;2.10;;;;;;;23.43;34.13;101153.34;5588440;31;32401;-68
2022/05/20 07:49:21;;;;;;;6.12;1.95;;;;;;;24.68;32.83;101146.41;5588261;31;34655;-68
2022/05/20 07:55:54;;;;;;;5.87;1.80;;;;;;;25.38;30.87;101133.28;5589010;31;34776;-68
2022/05/20 07:59:04;;;;;;;8.13;1.80;;;;;;;24.69;31.53;101135.28;5588844;31;34716;-68
2022/05/20 08:02:07;;;;;;;2.55;1.75;;;;;;;26.03;28.73;101138.09;5588097;31;32782;-67
2022/05/20 08:05:11;;;;;;;7.65;1.90;;;;;;;25.50;29.38;101141.34;5588920;31;34009;-69
2022/05/20 08:08:13;;;;;;;9.02;1.87;;;;;;;25.79;30.23;101136.66;5589043;31;34576;-68
2022/05/20 08:11:16;;;;;;;7.40;1.87;;;;;;;24.90;30.68;101122.13;5588250;31;32326;-69
2022/05/20 08:14:19;;;;;;;4.82;1.80;;;;;;;25.09;31.46;101118.94;5587196;31;32746;-69
2022/05/20 08:17:26;;;;;;;3.50;1.70;;;;;;;25.07;30.75;101110.25;5587606;31;33593;-68
2022/05/20 08:20:30;;;;;;;3.57;1.70;;;;;;;25.61;30.07;101117.91;5588046;31;32859;-68
2022/05/20 08:23:33;;;;;;;6.93;1.85;;;;;;;25.70;30.72;101114.53;5587136;31;33975;-68
2022/05/20 08:26:36;;;;;;;3.72;1.70;;;;;;;26.50;29.59;101113.94;5587622;31;34035;-68
2022/05/20 08:29:39;;;;;;;4.57;1.70;;;;;;;27.65;28.03;101121.56;5587295;31;34019;-69
2022/05/20 08:32:41;;;;;;;3.97;1.70;;;;;;;27.25;28.10;101122.03;5587459;31;32417;-69
2022/05/20 08:35:44;;;;;;;3.62;1.52;;;;;;;27.38;28.19;101118.06;5587435;31;32600;-68
2022/05/20 08:38:47;;;;;;;24.83;3.03;;;;;;;28.03;26.71;101116.88;5587314;31;34184;-69
2022/05/20 08:41:53;;;;;;;7.03;1.70;;;;;;;28.22;27.44;101101.72;5587354;31;32417;-69
2022/05/20 08:44:57;;;;;;;5.95;1.65;;;;;;;29.55;25.48;101095.34;5587729;31;34211;-69
2022/05/20 08:48:00;;;;;;;2.90;1.60;;;;;;;29.03;25.86;101087.44;5586955;31;32918;-67
2022/05/20 08:51:02;;;;;;;3.42;1.52;;;;;;;28.64;26.07;101085.19;5586888;31;32365;-69
2022/05/20 08:54:05;;;;;;;4.72;1.55;;;;;;;28.74;25.96;101081.69;5586653;31;32361;-69
2022/05/20 08:57:21;;;;;;;2.55;1.60;;;;;;;29.01;25.98;101075.97;5587851;31;33960;-69
2022/05/20 09:00:26;;;;;;;5.57;1.75;;;;;;;28.75;25.69;101073.22;5587837;31;35186;-69
2022/05/20 09:03:28;;;;;;;6.35;1.80;;;;;;;29.88;24.41;101070.09;5586615;31;33605;-68
2022/05/20 09:06:36;;;;;;;8.13;1.92;;;;;;;28.99;25.60;101048.94;5589382;31;32452;-67
2022/05/20 09:10:01;;;;;;;7.05;1.67;;;;;;;29.58;25.14;101045.59;5589666;31;33636;-68
2022/05/20 09:13:19;;;;;;;2.90;1.62;;;;;;;30.59;24.76;101047.91;5576557;31;32453;-67
2022/05/20 09:16:25;;;;;;;6.17;1.83;;;;;;;30.72;24.07;101051.91;5589808;31;34778;-68
2022/05/20 09:19:28;;;;;;;3.15;1.83;;;;;;;31.33;22.90;101050.28;5589382;31;32684;-68
2022/05/20 09:22:36;;;;;;;4.05;1.50;;;;;;;30.08;23.99;101045.41;5590159;31;33937;-68
2022/05/20 09:26:10;;;;;;;8.05;1.80;;;;;;;31.80;22.45;101046.00;5590184;31;34686;-68
2022/05/20 09:29:16;;;;;;;6.72;1.77;;;;;;;32.80;21.44;101034.72;5588662;31;32429;-67
2022/05/20 09:32:45;;;;;;;5.37;1.60;;;;;;;32.49;20.97;101039.03;5589224;31;35131;-68
2022/05/20 09:35:57;;;;;;;11.40;2.25;;;;;;;31.96;22.42;101038.34;5590198;31;34640;-67
2022/05/20 09:39:18;;;;;;;7.32;1.80;;;;;;;32.76;22.14;101028.19;5589952;31;34632;-67
2022/05/20 09:42:23;;;;;;;7.22;1.77;;;;;;;32.03;22.46;101025.09;5589718;31;33357;-68
2022/05/20 09:45:27;;;;;;;5.43;1.73;;;;;;;31.69;22.42;101015.09;5590752;31;34751;-67
2022/05/20 09:49:08;;;;;;;2.75;1.90;;;;;;;32.08;22.25;101020.37;5590470;31;34231;-68
2022/05/20 09:52:20;;;;;;;5.43;1.62;;;;;;;33.49;22.29;101021.97;5589444;31;33979;-68
2022/05/20 09:55:44;;;;;;;4.35;1.60;;;;;;;31.42;22.52;101021.13;5589972;31;35280;-68
2022/05/20 09:59:32;;;;;;;5.83;1.73;;;;;;;32.73;21.76;101015.84;5589937;31;33951;-68
2022/05/20 10:02:41;;;;;;;1.70;1.25;;;;;;;32.18;21.91;101017.50;5563892;31;32572;-68
2022/05/20 10:05:49;;;;;;;7.35;1.80;;;;;;;32.82;22.00;101010.50;5590016;31;34616;-68
2022/05/20 10:09:09;;;;;;;5.47;1.40;;;;;;;33.20;22.77;101014.00;5590084;31;34249;-68
2022/05/20 10:12:25;;;;;;;3.42;1.60;;;;;;;33.91;19.71;101012.59;5589800;31;34564;-68
2022/05/20 10:15:33;;;;;;;2.97;1.50;;;;;;;33.85;20.06;101011.88;5587808;31;32393;-68
2022/05/20 10:18:45;;;;;;;3.33;1.50;;;;;;;33.80;19.83;101011.97;5589731;31;33975;-68
2022/05/20 10:22:12;;;;;;;4.18;1.50;;;;;;;34.02;19.72;101014.81;5588955;31;35324;-68
2022/05/20 10:25:29;;;;;;;2.50;1.37;;;;;;;34.87;18.91;101013.13;5550932;31;33934;-68
2022/05/20 10:32:34;;;;;;;7.68;2.12;;;;;;;35.56;18.51;101011.53;5588979;31;32314;-67
2022/05/20 10:35:53;;;;;;;6.97;1.40;;;;;;;35.51;18.58;101000.66;5588766;31;33968;-67
2022/05/20 10:39:30;;;;;;;6.68;1.20;;;;;;;35.06;18.76;100993.59;5588289;31;33251;-67
2022/05/20 10:42:56;;;;;;;4.25;1.45;;;;;;;34.09;19.84;100997.03;5588694;31;33761;-68
2022/05/20 10:49:45;;;;;;;2.97;1.27;;;;;;;36.24;18.56;100979.72;5589124;31;34011;-68
2022/05/20 10:53:15;;;;;;;2.10;1.30;;;;;;;37.33;18.91;100975.44;5589561;31;34675;-68
2022/05/20 10:56:27;;;;;;;2.75;1.67;;;;;;;38.43;16.38;100978.97;5589260;31;34823;-66
2022/05/20 10:59:59;;;;;;;4.75;1.58;;;;;;;38.60;17.40;100964.97;5589045;31;34858;-67
2022/05/20 11:03:39;;;;;;;7.55;1.30;;;;;;;37.28;17.57;100964.56;5589149;31;34626;-66
2022/05/20 11:06:51;;;;;;;4.05;2.30;;;;;;;36.88;18.24;100961.28;5588656;31;34103;-67
2022/05/20 11:10:14;;;;;;;2.67;1.45;;;;;;;37.00;18.11;100955.84;5589185;31;34073;-68
2022/05/20 11:13:51;;;;;;;5.25;1.48;;;;;;;37.57;17.42;100954.69;5589338;31;34722;-66
2022/05/20 11:17:18;;;;;;;2.47;1.40;;;;;;;38.90;17.33;100958.16;5588678;31;33992;-66
2022/05/20 11:20:44;;;;;;;3.05;1.20;;;;;;;34.81;19.42;100943.50;5589027;31;34011;-66
2022/05/20 11:24:01;;;;;;;2.78;1.40;;;;;;;34.70;20.37;100944.09;5575362;31;32789;-66
2022/05/20 11:27:13;;;;;;;3.95;1.48;;;;;;;36.67;19.13;100942.94;5587468;31;32977;-66
2022/05/20 11:30:28;;;;;;;5.43;1.35;;;;;;;35.88;19.52;100940.50;5588832;31;34157;-67
2022/05/20 11:33:54;;;;;;;1.95;1.08;;;;;;;37.10;18.00;100940.88;5575235;31;33083;-67
2022/05/20 11:37:33;;;;;;;3.60;1.42;;;;;;;38.79;16.98;100929.19;5588972;31;33952;-67
2022/05/20 11:41:15;;;;;;;1.92;1.30;;;;;;;38.62;16.45;100913.56;5588462;31;33112;-67
2022/05/20 11:44:44;;;;;;;4.18;1.40;;;;;;;39.62;16.30;100916.88;5565262;31;33957;-66
2022/05/20 11:47:56;;;;;;;4.72;1.60;;;;;;;38.07;16.94;100907.56;5588163;31;33169;-67
2022/05/20 11:51:07;;;;;;;4.90;1.73;;;;;;;39.61;17.58;100893.03;5588066;31;34626;-67
2022/05/20 11:54:25;;;;;;;4.90;1.30;;;;;;;40.12;15.91;100891.41;5587904;31;33939;-67
2022/05/20 11:57:38;;;;;;;;;;;;;;;39.53;16.36;100897.56;5587834;31;34139;-67
2022/05/20 12:00:42;;;;;;;6.82;1.60;;;;;;;40.10;15.96;100893.69;5587105;31;34935;-66
2022/05/20 12:07:12;;;;;;;3.22;1.50;;;;;;;39.51;16.98;100895.13;5588599;31;34175;-67
2022/05/20 12:10:30;;;;;;;4.35;1.30;;;;;;;41.78;14.54;100890.03;5574581;31;34108;-67
2022/05/20 12:14:14;;;;;;;4.82;1.52;;;;;;;41.45;14.34;100886.91;5588442;31;34029;-67
2022/05/20 12:17:36;;;;;;;3.83;1.50;;;;;;;41.63;14.38;100877.81;5588769;31;34369;-67
2022/05/20 12:24:22;;;;;;;5.40;1.70;;;;;;;41.02;14.65;100871.13;5587593;31;33438;-67
2022/05/20 12:27:25;;;;;;;;;;;;;;;41.30;15.36;100866.25;5587796;31;33994;-67
2022/05/20 12:30:35;;;;;;;2.35;1.50;;;;;;;41.13;15.21;100852.75;5588580;31;34946;-68
2022/05/20 12:33:54;;;;;;;2.22;1.40;;;;;;;40.68;15.54;100856.81;5587256;31;34014;-68
2022/05/20 12:36:57;;;;;;;5.12;1.65;;;;;;;42.06;13.99;100857.22;5588208;31;34695;-68
2022/05/20 12:40:00;;;;;;;5.32;1.50;;;;;;;42.98;14.30;100852.50;5588512;31;33386;-67
2022/05/20 12:43:03;;;;;;;2.10;1.35;;;;;;;43.91;12.85;100852.62;5589709;31;33327;-68
2022/05/20 12:46:09;;;;;;;6.45;1.33;;;;;;;43.75;13.31;100844.44;5589679;31;32756;-68
2022/05/20 12:49:12;;;;;;;2.10;1.30;;;;;;;43.26;13.66;100840.94;5589247;31;33043;-67
2022/05/20 12:52:18;;;;;;;2.47;1.48;;;;;;;42.25;14.11;100838.81;5590001;31;35255;-69
2022/05/20 12:55:27;;;;;;;4.68;1.17;;;;;;;43.48;13.09;100840.06;5589403;31;32697;-66
2022/05/20 12:58:32;;;;;;;1.42;1.20;;;;;;;43.28;13.34;100828.19;5589490;31;34092;-66
2022/05/20 13:01:35;;;;;;;4.90;1.52;;;;;;;44.10;12.72;100826.47;5589341;31;32772;-67
2022/05/20 13:04:44;;;;;;;2.78;1.40;;;;;;;43.23;14.23;100820.19;5589567;31;32373;-66
2022/05/20 13:07:50;;;;;;;1.73;1.50;;;;;;;44.25;12.74;100819.87;5590272;31;34791;-67
2022/05/20 13:10:53;;;;;;;1.75;1.02;;;;;;;43.81;13.00;100825.34;5589355;31;33028;-66
2022/05/20 13:13:59;;;;;;;4.95;1.52;;;;;;;44.81;12.38;100818.75;5590266;31;34478;-66
2022/05/20 13:17:04;;;;;;;2.83;1.40;;;;;;;44.67;12.56;100808.25;5589324;31;34600;-68
2022/05/20 13:20:10;;;;;;;1.75;1.33;;;;;;;43.37;13.56;100811.19;5590605;31;34709;-67
2022/05/20 13:23:19;;;;;;;2.08;1.33;;;;;;;44.18;12.99;100809.38;5590254;31;34002;-67
2022/05/20 13:26:24;;;;;;;3.30;1.25;;;;;;;44.53;12.69;100803.31;5589947;31;33957;-67
2022/05/20 13:29:26;;;;;;;2.58;1.40;;;;;;;42.97;14.10;100794.22;5589952;31;34551;-67
2022/05/20 13:32:31;;;;;;;3.08;1.27;;;;;;;45.14;12.77;100796.16;5576533;31;33093;-67
2022/05/20 13:35:50;;;;;;;5.65;1.37;;;;;;;44.14;14.08;100790.94;5589159;31;32984;-66
2022/05/20 13:39:02;;;;;;;3.65;1.50;;;;;;;41.15;15.94;100787.19;5576216;31;34161;-69
2022/05/20 13:42:14;;;;;;;4.55;1.73;;;;;;;40.19;16.49;100775.66;5589325;31;33324;-68
2022/05/20 13:45:21;;;;;;;3.67;1.42;;;;;;;39.99;16.66;100785.00;5588897;31;34092;-68
2022/05/20 13:51:58;;;;;;;2.83;1.30;;;;;;;41.70;15.41;100773.22;5578676;31;33996;-68
2022/05/20 13:55:06;;;;;;;3.12;1.52;;;;;;;41.96;15.06;100768.63;5588777;31;32338;-69
2022/05/20 13:58:10;;;;;;;4.60;1.23;;;;;;;43.21;14.55;100757.50;5588551;31;32581;-68
2022/05/20 14:01:14;;;;;;;6.85;1.48;;;;;;;43.26;14.02;100754.38;5588449;31;32562;-67
2022/05/20 14:04:17;;;;;;;1.75;1.10;;;;;;;45.25;12.53;100755.00;5588440;31;34143;-68
2022/05/20 14:07:30;;;;;;;7.82;1.42;;;;;;;41.48;15.29;100747.75;5589851;31;34032;-68
2022/05/20 14:10:37;;;;;;;2.72;1.25;;;;;;;44.53;13.00;100747.34;5588437;31;36465;-67
2022/05/20 14:13:44;;;;;;;2.17;1.30;;;;;;;41.02;16.27;100732.78;5588687;31;33203;-67
2022/05/20 14:16:51;;;;;;;3.92;1.20;;;;;;;41.13;16.12;100724.69;5589290;31;34610;-68
2022/05/20 14:19:58;;;;;;;4.75;1.20;;;;;;;38.78;17.99;100716.75;5588571;31;33123;-67
2022/05/20 14:23:06;;;;;;;2.65;1.45;;;;;;;35.93;21.23;100711.13;5588695;31;33902;-68
2022/05/20 14:26:20;;;;;;;2.62;1.50;;;;;;;33.16;24.41;100707.75;5588863;31;33916;-68
2022/05/20 14:29:37;;;;;;;2.22;1.27;;;;;;;34.05;23.72;100714.06;5589138;31;34000;-68
2022/05/20 14:32:40;;;;;;;2.65;1.40;;;;;;;34.87;22.74;100707.91;5589112;31;35142;-67
2022/05/20 14:35:48;;;;;;;2.25;1.05;;;;;;;36.19;21.05;100711.09;5588772;31;33268;-68
2022/05/20 14:38:52;;;;;;;3.40;1.48;;;;;;;34.89;22.54;100704.84;5588409;31;32607;-67
2022/05/20 14:42:08;;;;;;;3.58;1.30;;;;;;;34.46;23.04;100708.28;5588158;31;32998;-68
2022/05/20 14:45:31;;;;;;;3.50;1.45;;;;;;;35.90;21.81;100692.47;5589170;31;35239;-68
2022/05/20 14:48:41;;;;;;;4.68;1.60;;;;;;;40.49;17.98;100695.38;5588435;31;32941;-68
2022/05/20 14:52:05;;;;;;;2.53;1.25;;;;;;;37.42;20.14;100695.88;5589208;31;34900;-68
2022/05/20 14:55:17;;;;;;;2.17;1.37;;;;;;;36.81;21.21;100684.44;5587743;31;32358;-69
2022/05/20 14:58:23;;;;;;;6.93;1.30;;;;;;;38.47;19.16;100692.44;5588289;31;33463;-67
2022/05/20 15:01:29;;;;;;;5.35;1.20;;;;;;;40.40;16.76;100683.66;5588531;31;34532;-68
2022/05/20 15:04:32;;;;;;;2.00;1.23;;;;;;;36.41;20.63;100680.41;5588554;31;34095;-67
2022/05/20 15:07:40;;;;;;;1.62;1.17;;;;;;;35.91;21.62;100683.06;5588767;31;33878;-68
2022/05/20 15:10:53;;;;;;;3.97;1.10;;;;;;;37.49;20.22;100689.75;5587708;31;32615;-68
2022/05/20 15:13:57;;;;;;;2.12;1.00;;;;;;;40.09;17.83;100686.44;5587557;31;34215;-67
2022/05/20 15:17:00;;;;;;;4.22;1.33;;;;;;;40.44;17.37;100673.41;5574632;31;33671;-67
2022/05/20 15:20:03;;;;;;;4.95;1.08;;;;;;;38.63;19.46;100679.47;5588775;31;34717;-67
2022/05/20 15:23:17;;;;;;;2.37;1.35;;;;;;;34.91;22.85;100677.75;5587972;31;34132;-67
2022/05/20 15:26:25;;;;;;;1.55;0.90;;;;;;;33.38;25.19;100676.69;5587993;31;32687;-66
2022/05/20 15:29:28;;;;;;;1.37;1.27;;;;;;;32.87;25.65;100666.88;5587662;31;34293;-66